createdAt,value
2023-01-09T00:01:16.232Z,35.73
2023-01-09T00:03:43.911Z,34.67
2023-01-09T00:06:11.268Z,35.80
2023-01-09T00:08:38.734Z,36.67
2023-01-09T00:11:07.832Z,35.10
2023-01-09T00:13:35.723Z,32.03
2023-01-09T00:16:05.442Z,33.03
2023-01-09T00:18:33.622Z,33.10
2023-01-09T00:21:05.866Z,35.10
2023-01-09T00:23:33.528Z,33.27
2023-01-09T00:26:05.420Z,34.33
2023-01-09T00:28:34.764Z,37.57
2023-01-09T00:31:04.072Z,34.33
2023-01-09T00:36:19.239Z,31.93
2023-01-09T00:38:47.249Z,36.83
2023-01-09T00:41:20.206Z,34.07
2023-01-09T00:43:56.980Z,30.87
2023-01-09T00:46:30.776Z,36.07
2023-01-09T00:48:58.937Z,35.40
2023-01-09T00:51:27.895Z,31.13
2023-01-09T00:53:55.408Z,33.05
2023-01-09T00:56:23.279Z,33.73
2023-01-09T00:58:52.533Z,34.87
2023-01-09T01:01:20.082Z,38.97
2023-01-09T01:03:48.001Z,38.00
2023-01-09T01:06:33.967Z,36.97
2023-01-09T01:09:01.740Z,28.50
2023-01-09T01:11:29.162Z,30.20
2023-01-09T01:13:56.475Z,30.40
2023-01-09T01:16:24.448Z,30.23
2023-01-09T01:18:51.800Z,29.40
2023-01-09T01:21:19.170Z,29.80
2023-01-09T01:23:46.783Z,35.47
2023-01-09T01:26:16.585Z,28.97
2023-01-09T01:28:44.016Z,32.23
2023-01-09T01:31:20.793Z,33.27
2023-01-09T01:33:48.052Z,33.37
2023-01-09T01:36:17.684Z,30.60
2023-01-09T01:41:12.353Z,27.93
2023-01-09T01:43:55.655Z,31.70
2023-01-09T01:46:23.469Z,29.27
2023-01-09T01:49:13.939Z,29.17
2023-01-09T01:51:45.457Z,28.17
2023-01-09T01:54:18.057Z,31.30
2023-01-09T01:56:49.170Z,30.63
2023-01-09T01:59:32.197Z,29.70
2023-01-09T02:02:02.009Z,27.40
2023-01-09T02:04:33.245Z,30.37
2023-01-09T02:07:05.087Z,30.53
2023-01-09T02:09:32.398Z,26.73
2023-01-09T02:12:01.041Z,32.90
2023-01-09T02:14:32.124Z,29.75
2023-01-09T02:17:19.407Z,31.13
2023-01-09T02:20:34.075Z,38.83
2023-01-09T02:23:26.209Z,47.33
2023-01-09T02:26:08.460Z,44.27
2023-01-09T02:28:54.515Z,45.50
2023-01-09T02:31:43.935Z,53.43
2023-01-09T02:36:41.820Z,54.53
2023-01-09T02:39:26.416Z,58.13
2023-01-09T02:42:13.202Z,53.50
2023-01-09T02:44:43.175Z,55.20
2023-01-09T02:47:16.748Z,53.00
2023-01-09T02:49:52.048Z,52.93
2023-01-09T02:52:37.957Z,44.00
2023-01-09T02:55:24.645Z,37.60
2023-01-09T02:58:08.782Z,37.87
2023-01-09T03:01:01.921Z,32.87
2023-01-09T03:04:01.143Z,38.47
2023-01-09T03:06:39.200Z,30.20
2023-01-09T03:09:15.411Z,32.38
2023-01-09T03:11:46.867Z,53.60
2023-01-09T03:14:17.987Z,48.83
2023-01-09T03:16:49.075Z,47.97
2023-01-09T03:19:21.016Z,46.47
2023-01-09T03:21:49.253Z,54.30
2023-01-09T03:24:16.879Z,43.67
2023-01-09T03:26:44.315Z,49.53
2023-01-09T03:29:11.711Z,38.23
2023-01-09T03:31:39.390Z,67.37
2023-01-09T03:34:07.072Z,55.30
2023-01-09T03:36:34.388Z,62.23
2023-01-09T03:39:02.021Z,66.70
2023-01-09T03:41:29.434Z,91.00
2023-01-09T03:43:56.757Z,60.73
2023-01-09T03:46:24.395Z,60.97
2023-01-09T03:48:51.658Z,72.43
2023-01-09T03:51:18.926Z,65.97
2023-01-09T03:53:46.572Z,64.00
2023-01-09T03:56:13.889Z,70.13
2023-01-09T03:58:41.391Z,59.00
2023-01-09T04:01:12.774Z,62.87
2023-01-09T04:03:40.662Z,66.20
2023-01-09T04:06:08.480Z,64.10
2023-01-09T04:08:35.749Z,67.60
2023-01-09T04:11:03.359Z,68.27
2023-01-09T04:13:30.646Z,56.30
2023-01-09T04:15:58.350Z,90.27
2023-01-09T04:18:26.030Z,80.87
2023-01-09T04:20:55.274Z,60.03
2023-01-09T04:23:23.067Z,44.60
2023-01-09T04:25:50.991Z,41.90
2023-01-09T04:28:19.339Z,43.25
2023-01-09T04:30:46.617Z,41.80
2023-01-09T04:33:14.250Z,37.70
2023-01-09T04:35:41.659Z,40.97
2023-01-09T04:38:09.021Z,37.97
2023-01-09T04:40:36.620Z,41.37
2023-01-09T04:43:03.943Z,51.63
2023-01-09T04:45:31.832Z,43.83
2023-01-09T04:47:59.509Z,48.80
2023-01-09T04:50:26.771Z,47.17
2023-01-09T04:52:54.135Z,47.37
2023-01-09T04:55:21.863Z,45.63
2023-01-09T04:57:49.168Z,51.53
2023-01-09T05:00:16.851Z,54.33
2023-01-09T05:02:44.615Z,47.97
2023-01-09T05:05:12.264Z,49.00
2023-01-09T05:07:40.153Z,55.73
2023-01-09T05:10:10.240Z,42.92
2023-01-09T05:12:37.985Z,49.83
2023-01-09T05:15:07.394Z,49.17
2023-01-09T05:17:35.262Z,47.57
2023-01-09T05:20:02.710Z,46.87
2023-01-09T05:22:30.282Z,49.57
2023-01-09T05:25:00.283Z,51.23
2023-01-09T05:27:27.980Z,47.63
2023-01-09T05:29:55.264Z,47.70
2023-01-09T05:32:23.997Z,47.15
2023-01-09T05:34:51.247Z,49.07
2023-01-09T05:37:18.588Z,47.20
2023-01-09T05:39:46.216Z,47.40
2023-01-09T05:42:13.458Z,48.90
2023-01-09T05:44:41.489Z,47.07
2023-01-09T05:47:09.077Z,49.53
2023-01-09T05:49:36.480Z,54.13
2023-01-09T05:52:05.022Z,56.33
2023-01-09T05:54:32.611Z,52.15
2023-01-09T05:56:59.868Z,45.47
2023-01-09T05:59:27.549Z,45.73
2023-01-09T06:01:55.340Z,47.73
2023-01-09T06:04:23.202Z,71.07
2023-01-09T06:06:50.929Z,70.93
2023-01-09T06:09:18.200Z,71.23
2023-01-09T06:11:45.747Z,54.63
2023-01-09T06:14:13.049Z,55.47
2023-01-09T06:16:40.509Z,63.03
2023-01-09T06:19:08.292Z,54.50
2023-01-09T06:21:35.630Z,45.03
2023-01-09T06:24:02.897Z,51.90
2023-01-09T06:26:30.612Z,49.43
2023-01-09T06:28:58.022Z,46.20
2023-01-09T06:31:25.951Z,40.43
2023-01-09T06:33:53.774Z,41.70
2023-01-09T06:36:22.553Z,38.47
2023-01-09T06:41:18.338Z,39.17
2023-01-09T06:43:45.657Z,38.07
2023-01-09T06:46:12.963Z,45.07
2023-01-09T06:48:40.686Z,49.17
2023-01-09T06:51:07.978Z,35.53
2023-01-09T06:53:35.422Z,40.53
2023-01-09T06:56:03.159Z,37.80
2023-01-09T06:58:30.698Z,36.93
2023-01-09T07:01:01.105Z,37.40
2023-01-09T07:03:28.908Z,42.03
2023-01-09T07:05:56.664Z,40.27
2023-01-09T07:08:24.065Z,42.07
2023-01-09T07:10:51.687Z,34.67
2023-01-09T07:13:19.188Z,37.67
2023-01-09T07:15:47.757Z,40.00
2023-01-09T07:18:15.850Z,38.17
2023-01-09T07:20:43.372Z,38.73
2023-01-09T07:23:14.032Z,40.53
2023-01-09T07:25:45.383Z,35.40
2023-01-09T07:28:12.856Z,46.00
2023-01-09T07:30:40.176Z,39.37
2023-01-09T07:33:08.013Z,45.70
2023-01-09T07:35:35.783Z,36.97
2023-01-09T07:38:03.141Z,35.40
2023-01-09T07:40:30.958Z,37.40
2023-01-09T07:42:58.297Z,40.37
2023-01-09T07:45:25.868Z,35.43
2023-01-09T07:47:53.577Z,35.77
2023-01-09T07:50:21.032Z,33.87
2023-01-09T07:52:48.519Z,36.83
2023-01-09T07:55:17.582Z,36.17
2023-01-09T07:57:49.217Z,35.58
2023-01-09T08:00:17.339Z,40.67
2023-01-09T08:02:45.017Z,33.10
2023-01-09T08:05:15.174Z,36.50
2023-01-09T08:07:43.215Z,31.17
2023-01-09T08:10:11.925Z,35.60
2023-01-09T08:12:43.091Z,37.38
2023-01-09T08:15:11.250Z,33.63
2023-01-09T08:17:41.316Z,37.87
2023-01-09T08:20:12.624Z,34.93
2023-01-09T08:22:49.800Z,36.07
2023-01-09T08:25:18.127Z,34.60
2023-01-09T08:27:45.818Z,32.65
2023-01-09T08:30:13.555Z,34.73
2023-01-09T08:32:41.499Z,34.80
2023-01-09T08:35:09.786Z,35.70
2023-01-09T08:37:37.139Z,32.93
2023-01-09T08:40:05.616Z,29.57
2023-01-09T08:42:51.976Z,34.00
2023-01-09T08:45:38.039Z,35.73
2023-01-09T08:48:05.941Z,33.23
2023-01-09T08:50:33.761Z,30.23
2023-01-09T08:53:01.163Z,31.67
2023-01-09T08:55:28.945Z,32.00
2023-01-09T08:57:56.800Z,29.60
2023-01-09T09:00:25.015Z,33.43
2023-01-09T09:02:54.460Z,33.78
2023-01-09T09:05:23.195Z,34.38
2023-01-09T09:07:54.119Z,35.75
2023-01-09T09:10:27.365Z,32.40
2023-01-09T09:12:56.604Z,32.77
2023-01-09T09:15:26.591Z,28.90
2023-01-09T09:17:59.107Z,32.50
2023-01-09T09:20:29.573Z,29.17
2023-01-09T09:22:57.490Z,28.13
2023-01-09T09:25:25.540Z,33.50
2023-01-09T09:27:53.804Z,29.75
2023-01-09T09:30:21.222Z,29.57
2023-01-09T09:32:49.658Z,26.47
2023-01-09T09:35:21.293Z,28.87
2023-01-09T09:37:57.248Z,29.13
2023-01-09T09:40:43.172Z,30.00
2023-01-09T09:43:45.233Z,32.47
2023-01-09T09:46:38.806Z,29.77
2023-01-09T09:49:09.189Z,37.67
2023-01-09T09:51:49.340Z,30.53
2023-01-09T09:54:41.167Z,25.03
2023-01-09T09:57:16.724Z,29.63
2023-01-09T09:59:48.384Z,27.00
2023-01-09T10:02:28.265Z,25.17
2023-01-09T10:05:26.510Z,27.27
2023-01-09T10:07:54.322Z,27.67
2023-01-09T10:10:35.095Z,28.37
2023-01-09T10:13:25.050Z,26.77
2023-01-09T10:16:15.486Z,27.23
2023-01-09T10:18:57.974Z,28.70
2023-01-09T10:21:34.756Z,30.47
2023-01-09T10:24:01.990Z,25.40
2023-01-09T10:26:43.507Z,26.43
2023-01-09T10:29:29.729Z,26.80
2023-01-09T10:32:18.645Z,24.23
2023-01-09T10:35:01.469Z,21.77
2023-01-09T10:37:37.954Z,25.90
2023-01-09T10:40:14.556Z,26.27
2023-01-09T10:42:48.541Z,25.70
2023-01-09T10:45:42.494Z,26.17
2023-01-09T10:48:37.705Z,24.87
2023-01-09T10:51:46.895Z,23.13
2023-01-09T10:54:24.921Z,23.10
2023-01-09T10:57:13.091Z,23.80
2023-01-09T10:59:42.349Z,25.17
2023-01-09T11:02:27.130Z,23.45
2023-01-09T11:04:54.908Z,27.03
2023-01-09T11:07:26.987Z,23.43
2023-01-09T11:10:08.334Z,28.27
2023-01-09T11:15:16.166Z,28.47
2023-01-09T11:17:44.581Z,24.53
2023-01-09T11:20:26.627Z,27.40
2023-01-09T11:22:57.042Z,27.10
2023-01-09T11:25:29.327Z,28.70
2023-01-09T11:28:07.060Z,28.77
2023-01-09T11:30:36.513Z,34.33
2023-01-09T11:33:16.099Z,25.05
2023-01-09T11:36:02.435Z,26.80
2023-01-09T11:38:32.332Z,21.77
2023-01-09T11:41:05.106Z,23.47
2023-01-09T11:43:37.842Z,24.87
2023-01-09T11:46:08.317Z,25.23
2023-01-09T11:48:57.111Z,24.77
2023-01-09T11:51:29.315Z,24.90
2023-01-09T11:54:22.468Z,26.20
2023-01-09T11:56:50.835Z,25.37
2023-01-09T11:59:21.344Z,25.23
2023-01-09T12:02:16.212Z,22.80
2023-01-09T12:05:12.130Z,25.13
2023-01-09T12:08:18.426Z,22.57
2023-01-09T12:11:04.184Z,26.20
2023-01-09T12:13:50.228Z,22.93
2023-01-09T12:16:57.904Z,23.33
2023-01-09T12:19:44.096Z,26.07
2023-01-09T12:22:24.027Z,24.63
2023-01-09T12:25:00.764Z,21.57
2023-01-09T12:27:39.686Z,23.53
2023-01-09T12:30:18.667Z,25.42
2023-01-09T12:35:51.360Z,24.15
2023-01-09T12:39:02.615Z,24.20
2023-01-09T12:41:48.684Z,23.43
2023-01-09T12:44:50.591Z,23.50
2023-01-09T12:47:33.223Z,25.87
2023-01-09T12:50:24.956Z,29.50
2023-01-09T12:53:18.012Z,25.67
2023-01-09T12:56:00.161Z,27.77
2023-01-09T12:58:47.300Z,24.73
2023-01-09T13:01:20.180Z,25.10
2023-01-09T13:04:18.402Z,22.50
2023-01-09T13:06:52.010Z,21.37
2023-01-09T13:09:27.670Z,22.37
2023-01-09T13:12:14.580Z,21.17
2023-01-09T13:15:07.657Z,24.10
2023-01-09T13:17:47.160Z,22.73
2023-01-09T13:20:33.853Z,23.42
2023-01-09T13:23:05.534Z,23.83
2023-01-09T13:25:47.400Z,22.07
2023-01-09T13:28:44.002Z,24.63
2023-01-09T13:31:29.714Z,24.47
2023-01-09T13:34:00.529Z,23.27
2023-01-09T13:36:33.377Z,27.47
2023-01-09T13:39:02.526Z,20.90
2023-01-09T13:41:49.954Z,22.95
2023-01-09T13:44:29.060Z,24.50
2023-01-09T13:46:59.594Z,26.45
2023-01-09T13:49:53.406Z,27.30
2023-01-09T13:52:37.225Z,25.50
2023-01-09T13:55:17.002Z,26.33
2023-01-09T13:58:06.251Z,22.40
2023-01-09T14:00:37.545Z,28.37
2023-01-09T14:03:08.499Z,23.07
2023-01-09T14:05:35.797Z,25.67
2023-01-09T14:08:16.365Z,21.80
2023-01-09T14:10:43.879Z,23.03
2023-01-09T14:13:33.386Z,29.87
2023-01-09T14:16:20.608Z,29.43
2023-01-09T14:18:52.308Z,28.93
2023-01-09T14:21:20.611Z,26.40
2023-01-09T14:24:06.743Z,25.03
2023-01-09T14:26:48.334Z,31.47
2023-01-09T14:29:31.270Z,25.70
2023-01-09T14:32:23.949Z,24.23
2023-01-09T14:34:57.639Z,23.57
2023-01-09T14:37:28.804Z,21.17
2023-01-09T14:39:58.718Z,25.83
2023-01-09T14:42:30.891Z,23.90
2023-01-09T14:45:27.857Z,25.77
2023-01-09T14:48:03.831Z,26.23
2023-01-09T14:50:38.170Z,25.60
2023-01-09T14:53:24.121Z,22.33
2023-01-09T14:55:58.117Z,23.07
2023-01-09T14:58:28.995Z,25.37
2023-01-09T15:01:15.044Z,20.50
2023-01-09T15:03:46.845Z,30.27
2023-01-09T15:06:20.971Z,23.63
2023-01-09T15:08:59.169Z,27.73
2023-01-09T15:11:28.019Z,26.30
2023-01-09T15:14:04.376Z,25.33
2023-01-09T15:16:33.248Z,30.53
2023-01-09T15:19:04.608Z,32.60
2023-01-09T15:21:32.910Z,25.93
2023-01-09T15:24:22.055Z,24.60
2023-01-09T15:26:54.431Z,26.98
2023-01-09T15:29:23.047Z,26.23
2023-01-09T15:31:54.905Z,28.90
2023-01-09T15:34:26.220Z,32.83
2023-01-09T15:36:54.426Z,31.00
2023-01-09T15:39:51.426Z,29.63
2023-01-09T15:42:43.124Z,24.37
2023-01-09T15:45:35.492Z,30.93
2023-01-09T15:48:20.920Z,30.13
2023-01-09T15:50:54.439Z,24.90
2023-01-09T15:53:24.475Z,27.50
2023-01-09T15:56:05.609Z,33.57
2023-01-09T15:58:39.231Z,32.77
2023-01-09T16:01:35.700Z,34.07
2023-01-09T16:04:17.304Z,36.03
2023-01-09T16:06:47.978Z,33.20
2023-01-09T16:09:28.747Z,37.97
2023-01-09T16:12:02.524Z,28.30
2023-01-09T16:14:45.799Z,32.83
2023-01-09T16:17:18.165Z,32.90
2023-01-09T16:19:59.850Z,62.97
2023-01-09T16:22:34.341Z,43.77
2023-01-09T16:25:42.528Z,42.93
2023-01-09T16:28:21.327Z,34.47
2023-01-09T16:30:56.177Z,37.15
2023-01-09T16:33:26.289Z,42.07
2023-01-09T16:35:54.582Z,34.03
2023-01-09T16:38:22.975Z,34.60
2023-01-09T16:41:20.038Z,32.53
2023-01-09T16:43:47.690Z,36.77
2023-01-09T16:46:17.678Z,38.70
2023-01-09T16:48:45.050Z,35.97
2023-01-09T16:51:21.849Z,29.53
2023-01-09T16:53:50.339Z,38.00
2023-01-09T16:56:22.890Z,34.22
2023-01-09T16:58:50.767Z,33.00
2023-01-09T17:01:18.526Z,37.13
2023-01-09T17:03:45.962Z,30.87
2023-01-09T17:06:23.336Z,34.93
2023-01-09T17:08:51.730Z,39.80
2023-01-09T17:11:24.459Z,40.77
2023-01-09T17:13:52.069Z,41.10
2023-01-09T17:16:19.892Z,36.90
2023-01-09T17:18:47.247Z,36.50
2023-01-09T17:21:20.698Z,35.63
2023-01-09T17:23:48.499Z,36.30
2023-01-09T17:26:37.163Z,33.53
2023-01-09T17:29:05.230Z,41.05
2023-01-09T17:31:32.860Z,46.28
2023-01-09T17:34:00.189Z,35.97
2023-01-09T17:36:34.829Z,38.33
2023-01-09T17:39:03.122Z,38.40
2023-01-09T17:41:31.972Z,36.23
2023-01-09T17:43:59.847Z,37.20
2023-01-09T17:46:31.297Z,33.00
2023-01-09T17:48:59.250Z,32.47
2023-01-09T17:51:27.336Z,34.10
2023-01-09T17:53:55.281Z,35.53
2023-01-09T17:56:25.513Z,33.67
2023-01-09T17:58:53.286Z,30.33
2023-01-09T18:01:21.846Z,32.80
2023-01-09T18:03:50.679Z,32.72
2023-01-09T18:06:23.406Z,31.12
2023-01-09T18:08:51.469Z,29.53
2023-01-09T18:11:21.158Z,35.00
2023-01-09T18:13:50.658Z,34.30
2023-01-09T18:16:21.529Z,39.33
2023-01-09T18:18:49.127Z,35.90
2023-01-09T18:21:19.119Z,38.27
2023-01-09T18:23:47.676Z,35.80
2023-01-09T18:26:22.467Z,33.05
2023-01-09T18:28:56.354Z,41.63
2023-01-09T18:31:27.502Z,38.37
2023-01-09T18:33:57.678Z,39.10
2023-01-09T18:36:30.024Z,33.47
2023-01-09T18:38:59.588Z,33.07
2023-01-09T18:41:29.027Z,34.27
2023-01-09T18:44:01.096Z,30.45
2023-01-09T18:46:32.315Z,31.13
2023-01-09T18:49:04.747Z,33.13
2023-01-09T18:51:35.796Z,35.80
2023-01-09T18:54:04.192Z,32.93
2023-01-09T18:56:32.359Z,24.37
2023-01-09T18:59:00.269Z,33.67
2023-01-09T19:01:29.173Z,41.00
2023-01-09T19:03:59.546Z,31.00
2023-01-09T19:06:27.951Z,30.53
2023-01-09T19:08:55.351Z,41.85
2023-01-09T19:11:23.079Z,35.60
2023-01-09T19:13:50.942Z,33.60
2023-01-09T19:16:18.871Z,35.00
2023-01-09T19:18:47.057Z,36.77
2023-01-09T19:21:18.275Z,32.90
2023-01-09T19:23:47.290Z,34.63
2023-01-09T19:28:55.390Z,29.90
2023-01-09T19:31:24.890Z,36.30
2023-01-09T19:33:52.864Z,30.77
2023-01-09T19:36:21.504Z,33.47
2023-01-09T19:38:49.246Z,37.00
2023-01-09T19:41:19.632Z,40.83
2023-01-09T19:43:48.093Z,40.00
2023-01-09T19:46:18.846Z,31.05
2023-01-09T19:48:47.088Z,37.37
2023-01-09T19:51:16.488Z,52.57
2023-01-09T19:53:44.857Z,52.43
2023-01-09T19:56:15.505Z,46.20
2023-01-09T19:58:47.911Z,45.10
2023-01-09T20:01:18.580Z,42.20
2023-01-09T20:03:48.539Z,43.40
2023-01-09T20:06:19.487Z,42.80
2023-01-09T20:08:48.552Z,55.10
2023-01-09T20:11:16.474Z,37.22
2023-01-09T20:13:44.245Z,46.60
2023-01-09T20:16:20.233Z,52.10
2023-01-09T20:18:48.159Z,39.73
2023-01-09T20:23:51.417Z,37.87
2023-01-09T20:26:19.889Z,39.35
2023-01-09T20:28:48.036Z,33.80
2023-01-09T20:31:17.968Z,41.03
2023-01-09T20:33:47.731Z,44.87
2023-01-09T20:36:15.749Z,44.00
2023-01-09T20:38:44.358Z,43.43
2023-01-09T20:41:24.265Z,40.70
2023-01-09T20:43:56.091Z,42.40
2023-01-09T20:46:26.665Z,43.33
2023-01-09T20:48:58.747Z,42.83
2023-01-09T20:51:26.579Z,43.00
2023-01-09T20:53:56.891Z,36.80
2023-01-09T20:56:29.912Z,44.37
2023-01-09T20:58:58.761Z,39.83
2023-01-09T21:01:26.762Z,40.12
2023-01-09T21:03:56.198Z,45.90
2023-01-09T21:06:25.624Z,39.83
2023-01-09T21:08:53.313Z,40.03
2023-01-09T21:11:22.197Z,37.77
2023-01-09T21:13:50.811Z,34.57
2023-01-09T21:16:21.747Z,56.07
2023-01-09T21:18:49.735Z,35.00
2023-01-09T21:21:20.108Z,39.73
2023-01-09T21:23:53.235Z,36.47
2023-01-09T21:26:24.979Z,31.63
2023-01-09T21:28:55.396Z,41.73
2023-01-09T21:31:26.717Z,34.53
2023-01-09T21:33:54.700Z,39.60
2023-01-09T21:36:22.225Z,38.93
2023-01-09T21:38:52.380Z,36.97
2023-01-09T21:41:40.096Z,36.77
2023-01-09T21:44:30.858Z,37.80
2023-01-09T21:47:00.548Z,39.30
2023-01-09T21:49:31.475Z,45.20
2023-01-09T21:51:58.994Z,41.33
2023-01-09T21:54:26.477Z,40.10
2023-01-09T21:56:54.997Z,34.33
2023-01-09T21:59:23.063Z,45.23
2023-01-09T22:01:51.128Z,40.07
2023-01-09T22:04:21.612Z,35.57
2023-01-09T22:06:49.575Z,35.37
2023-01-09T22:09:17.382Z,47.87
2023-01-09T22:11:45.324Z,38.70
2023-01-09T22:14:14.832Z,45.93
2023-01-09T22:16:43.761Z,38.07
2023-01-09T22:19:12.895Z,38.40
2023-01-09T22:21:40.199Z,41.65
2023-01-09T22:24:07.887Z,40.57
2023-01-09T22:26:35.607Z,40.27
2023-01-09T22:29:02.940Z,47.53
2023-01-09T22:31:32.805Z,48.63
2023-01-09T22:34:02.521Z,44.47
2023-01-09T22:36:31.302Z,44.58
2023-01-09T22:39:01.312Z,45.90
2023-01-09T22:41:32.721Z,43.97
2023-01-09T22:44:00.264Z,45.83
2023-01-09T22:46:27.518Z,41.00
2023-01-09T22:48:55.198Z,43.33
2023-01-09T22:51:22.985Z,47.13
2023-01-09T22:53:51.285Z,44.93
2023-01-09T22:56:20.938Z,45.60
2023-01-09T22:58:53.066Z,44.22
2023-01-09T23:01:23.127Z,46.97
2023-01-09T23:03:50.450Z,40.92
2023-01-09T23:06:22.383Z,43.80
2023-01-09T23:08:51.253Z,38.77
2023-01-09T23:11:44.386Z,31.27
2023-01-09T23:14:12.959Z,39.73
2023-01-09T23:16:40.446Z,35.70
2023-01-09T23:19:14.648Z,40.97
2023-01-09T23:21:43.381Z,35.60
2023-01-09T23:24:11.700Z,30.93
2023-01-09T23:26:39.509Z,36.47
2023-01-09T23:29:08.094Z,34.07
2023-01-09T23:31:36.145Z,35.50
2023-01-09T23:34:04.832Z,34.50
2023-01-09T23:36:32.495Z,37.63
2023-01-09T23:39:00.196Z,34.03
2023-01-09T23:41:47.478Z,31.07
2023-01-09T23:44:15.108Z,32.60
2023-01-09T23:46:42.355Z,29.13
2023-01-09T23:49:10.561Z,35.03
2023-01-09T23:51:38.208Z,30.37
2023-01-09T23:54:05.530Z,35.47
2023-01-09T23:56:34.137Z,32.27
2023-01-09T23:59:02.640Z,29.92
